createdAt,value
2022-10-11T00:00:57.667Z,100069.53
2022-10-11T00:04:00.861Z,100066.22
2022-10-11T00:07:04.173Z,100072.47
2022-10-11T00:10:08.612Z,100044.59
2022-10-11T00:13:11.251Z,100061.22
2022-10-11T00:16:15.589Z,100059.78
2022-10-11T00:19:18.743Z,100059.78
2022-10-11T00:22:21.746Z,100059.09
2022-10-11T00:25:24.407Z,100054.72
2022-10-11T00:28:27.986Z,100051.44
2022-10-11T00:31:34.778Z,100058.94
2022-10-11T00:34:38.719Z,100050.81
2022-10-11T00:37:41.452Z,100046.59
2022-10-11T00:40:45.134Z,100055.13
2022-10-11T00:43:47.787Z,100044.22
2022-10-11T00:47:03.253Z,100038.56
2022-10-11T00:50:10.923Z,100045.59
2022-10-11T00:53:14.036Z,100044.69
2022-10-11T00:56:31.339Z,100042.12
2022-10-11T00:59:42.085Z,100037.47
2022-10-11T01:02:45.043Z,100036.56
2022-10-11T01:05:48.232Z,100037.78
2022-10-11T01:08:52.267Z,100037.34
2022-10-11T01:11:59.546Z,100037.34
2022-10-11T01:15:31.492Z,100037.34
2022-10-11T01:18:59.576Z,100032.63
2022-10-11T01:22:24.060Z,100030.91
2022-10-11T01:25:45.998Z,100025.78
2022-10-11T01:28:58.145Z,100031.13
2022-10-11T01:32:20.564Z,100021.78
2022-10-11T01:35:41.556Z,100028.50
2022-10-11T01:38:50.321Z,100024.34
2022-10-11T01:41:56.716Z,100027.91
2022-10-11T01:45:00.470Z,100029.16
2022-10-11T01:48:06.401Z,100022.69
2022-10-11T01:51:09.920Z,100029.03
2022-10-11T01:55:08.298Z,100032.81
2022-10-11T01:58:21.110Z,100031.59
2022-10-11T02:01:54.908Z,100025.56
2022-10-11T02:05:16.691Z,100038.25
2022-10-11T02:08:19.675Z,100036.09
2022-10-11T02:11:30.175Z,100032.94
2022-10-11T02:14:37.680Z,100037.09
2022-10-11T02:17:45.572Z,100031.78
2022-10-11T02:20:50.647Z,100028.84
2022-10-11T02:24:17.451Z,100035.94
2022-10-11T02:27:24.670Z,100027.56
2022-10-11T02:30:29.041Z,100031.56
2022-10-11T02:33:44.442Z,100020.09
2022-10-11T02:37:04.667Z,100031.41
2022-10-11T02:40:17.444Z,100025.75
2022-10-11T02:43:33.079Z,100025.41
2022-10-11T02:46:37.505Z,100033.91
2022-10-11T02:49:40.495Z,100026.44
2022-10-11T02:52:43.373Z,100034.44
2022-10-11T02:55:47.484Z,100031.94
2022-10-11T02:58:50.337Z,100036.87
2022-10-11T03:01:53.703Z,100031.75
2022-10-11T03:04:56.501Z,100033.50
2022-10-11T03:07:59.472Z,100042.09
2022-10-11T03:11:02.158Z,100042.78
2022-10-11T03:14:05.295Z,100044.94
2022-10-11T03:17:34.651Z,100049.97
2022-10-11T03:20:31.586Z,100045.84
2022-10-11T03:23:34.285Z,100049.69
2022-10-11T03:26:37.336Z,100045.53
2022-10-11T03:29:40.029Z,100049.75
2022-10-11T03:32:43.913Z,100059.38
2022-10-11T03:35:48.375Z,100051.09
2022-10-11T03:38:51.331Z,100066.72
2022-10-11T03:41:54.065Z,100067.53
2022-10-11T03:44:57.284Z,100064.00
2022-10-11T03:48:00.100Z,100062.16
2022-10-11T03:51:03.251Z,100061.75
2022-10-11T03:54:06.019Z,100057.00
2022-10-11T03:57:09.009Z,100062.44
2022-10-11T04:00:12.041Z,100064.09
2022-10-11T04:03:15.625Z,100063.22
2022-10-11T04:06:18.329Z,100064.66
2022-10-11T04:09:21.403Z,100066.12
2022-10-11T04:12:24.093Z,100067.87
2022-10-11T04:15:27.134Z,100070.34
2022-10-11T04:18:29.807Z,100067.44
2022-10-11T04:21:33.010Z,100072.41
2022-10-11T04:24:36.069Z,100074.66
2022-10-11T04:27:39.242Z,100083.44
2022-10-11T04:30:41.972Z,100079.16
2022-10-11T04:33:45.023Z,100064.22
2022-10-11T04:36:50.055Z,100075.72
2022-10-11T04:39:53.272Z,100078.88
2022-10-11T04:42:56.154Z,100078.44
2022-10-11T04:45:59.146Z,100076.75
2022-10-11T04:49:01.855Z,100073.81
2022-10-11T04:52:05.234Z,100077.97
2022-10-11T04:55:08.157Z,100075.63
2022-10-11T04:58:11.128Z,100080.63
2022-10-11T05:01:14.017Z,100087.72
2022-10-11T05:04:17.009Z,100096.41
2022-10-11T05:07:19.759Z,100090.66
2022-10-11T05:10:22.862Z,100089.25
2022-10-11T05:13:27.077Z,100093.78
2022-10-11T05:16:30.122Z,100095.88
2022-10-11T05:19:32.826Z,100092.47
2022-10-11T05:22:35.938Z,100097.00
2022-10-11T05:25:38.678Z,100098.97
2022-10-11T05:28:42.239Z,100105.53
2022-10-11T05:31:45.015Z,100110.22
2022-10-11T05:34:48.003Z,100108.37
2022-10-11T05:37:50.650Z,100111.13
2022-10-11T05:40:54.490Z,100120.81
2022-10-11T05:43:57.182Z,100117.12
2022-10-11T05:47:00.169Z,100121.66
2022-10-11T05:50:02.909Z,100117.22
2022-10-11T05:53:06.504Z,100117.41
2022-10-11T05:56:24.230Z,100123.44
2022-10-11T05:59:27.223Z,100122.78
2022-10-11T06:02:30.164Z,100122.78
2022-10-11T06:05:35.408Z,100124.97
2022-10-11T06:08:38.084Z,100128.34
2022-10-11T06:11:41.431Z,100125.91
2022-10-11T06:14:44.673Z,100134.47
2022-10-11T06:17:47.805Z,100135.50
2022-10-11T06:20:50.425Z,100139.38
2022-10-11T06:23:59.904Z,100138.25
2022-10-11T06:27:04.133Z,100143.91
2022-10-11T06:30:07.881Z,100148.97
2022-10-11T06:33:10.463Z,100151.91
2022-10-11T06:36:15.327Z,100149.97
2022-10-11T06:39:17.946Z,100147.91
2022-10-11T06:42:20.931Z,100146.69
2022-10-11T06:45:23.525Z,100151.34
2022-10-11T06:48:26.958Z,100154.63
2022-10-11T06:51:30.293Z,100153.88
2022-10-11T06:54:33.174Z,100150.06
2022-10-11T06:57:35.899Z,100152.13
2022-10-11T07:00:39.456Z,100151.84
2022-10-11T07:03:42.269Z,100151.81
2022-10-11T07:06:45.141Z,100145.81
2022-10-11T07:09:47.830Z,100147.97
2022-10-11T07:12:50.836Z,100160.53
2022-10-11T07:15:53.414Z,100160.25
2022-10-11T07:19:00.749Z,100168.47
2022-10-11T07:22:03.844Z,100168.44
2022-10-11T07:25:07.108Z,100157.84
2022-10-11T07:28:09.791Z,100165.91
2022-10-11T07:31:16.688Z,100156.28
2022-10-11T07:34:20.695Z,100159.78
2022-10-11T07:37:23.538Z,100166.31
2022-10-11T07:40:33.654Z,100173.09
2022-10-11T07:43:37.384Z,100173.22
2022-10-11T07:46:39.942Z,100173.38
2022-10-11T07:49:43.158Z,100177.19
2022-10-11T07:52:45.697Z,100174.53
2022-10-11T07:55:48.529Z,100171.53
2022-10-11T07:58:57.188Z,100175.75
2022-10-11T08:02:00.258Z,100187.59
2022-10-11T08:05:03.558Z,100193.44
2022-10-11T08:08:06.184Z,100194.06
2022-10-11T08:11:09.053Z,100193.84
2022-10-11T08:14:12.092Z,100192.69
2022-10-11T08:17:15.049Z,100186.09
2022-10-11T08:20:17.633Z,100190.75
2022-10-11T08:23:20.592Z,100188.78
2022-10-11T08:26:23.404Z,100195.63
2022-10-11T08:29:26.261Z,100197.88
2022-10-11T08:32:29.828Z,100173.91
2022-10-11T08:35:32.675Z,100188.69
2022-10-11T08:38:37.179Z,100178.91
2022-10-11T08:41:42.232Z,100179.28
2022-10-11T08:45:12.061Z,100194.91
2022-10-11T08:48:20.146Z,100190.09
2022-10-11T08:51:33.935Z,100189.69
2022-10-11T08:54:55.997Z,100193.78
2022-10-11T08:57:59.262Z,100188.47
2022-10-11T09:01:04.070Z,100189.81
2022-10-11T09:04:17.270Z,100175.00
2022-10-11T09:07:53.245Z,100177.06
2022-10-11T09:11:34.465Z,100187.34
2022-10-11T09:14:53.634Z,100180.25
2022-10-11T09:17:58.990Z,100179.75
2022-10-11T09:21:42.068Z,100188.78
2022-10-11T09:24:47.571Z,100185.19
2022-10-11T09:28:02.933Z,100187.34
2022-10-11T09:31:10.095Z,100192.44
2022-10-11T09:34:14.742Z,100191.38
2022-10-11T09:37:40.542Z,100190.19
2022-10-11T09:40:58.504Z,100191.22
2022-10-11T09:44:01.179Z,100195.63
2022-10-11T09:47:05.094Z,100186.97
2022-10-11T09:50:23.314Z,100190.06
2022-10-11T09:53:57.341Z,100192.22
2022-10-11T09:56:59.940Z,100190.19
2022-10-11T10:00:21.330Z,100183.00
2022-10-11T10:03:35.736Z,100173.03
2022-10-11T10:06:38.986Z,100183.78
2022-10-11T10:09:41.963Z,100186.53
2022-10-11T10:12:58.932Z,100181.12
2022-10-11T10:16:04.273Z,100180.19
2022-10-11T10:19:18.480Z,100183.22
2022-10-11T10:22:30.936Z,100188.00
2022-10-11T10:25:42.316Z,100190.56
2022-10-11T10:29:16.255Z,100191.56
2022-10-11T10:32:28.098Z,100182.97
2022-10-11T10:35:46.961Z,100184.97
2022-10-11T10:38:56.470Z,100178.72
2022-10-11T10:42:03.514Z,100191.19
2022-10-11T10:45:12.273Z,100199.34
2022-10-11T10:49:11.791Z,100203.63
2022-10-11T10:52:06.036Z,100191.00
2022-10-11T10:55:36.521Z,100176.59
2022-10-11T10:58:57.469Z,100179.37
2022-10-11T11:02:35.449Z,100186.75
2022-10-11T11:06:02.110Z,100185.94
2022-10-11T11:09:49.926Z,100187.28
2022-10-11T11:13:19.708Z,100181.41
2022-10-11T11:16:31.344Z,100180.56
2022-10-11T11:20:27.436Z,100182.28
2022-10-11T11:23:56.670Z,100183.78
2022-10-11T11:27:06.510Z,100174.28
2022-10-11T11:30:20.420Z,100172.09
2022-10-11T11:33:44.056Z,100178.78
2022-10-11T11:37:02.561Z,100172.19
2022-10-11T11:40:16.674Z,100176.25
2022-10-11T11:43:37.141Z,100170.97
2022-10-11T11:46:59.364Z,100170.09
2022-10-11T11:50:20.814Z,100153.28
2022-10-11T11:53:43.624Z,100155.78
2022-10-11T11:56:57.691Z,100153.06
2022-10-11T12:00:15.784Z,100158.81
2022-10-11T12:03:28.646Z,100156.56
2022-10-11T12:06:47.719Z,100152.28
2022-10-11T12:10:28.106Z,100144.94
2022-10-11T12:13:36.972Z,100136.66
2022-10-11T12:17:07.150Z,100148.31
2022-10-11T12:20:14.559Z,100147.53
2022-10-11T12:23:29.539Z,100138.69
2022-10-11T12:26:36.454Z,100141.91
2022-10-11T12:29:50.175Z,100122.63
2022-10-11T12:33:03.281Z,100132.53
2022-10-11T12:36:28.702Z,100136.38
2022-10-11T12:39:46.629Z,100128.72
2022-10-11T12:43:14.294Z,100128.09
2022-10-11T12:46:29.105Z,100129.72
2022-10-11T12:49:38.008Z,100125.00
2022-10-11T12:53:03.599Z,100122.56
2022-10-11T12:56:15.719Z,100131.94
2022-10-11T12:59:21.907Z,100121.47
2022-10-11T13:02:39.633Z,100118.06
2022-10-11T13:05:45.564Z,100114.50
2022-10-11T13:08:54.924Z,100130.22
2022-10-11T13:12:06.810Z,100122.91
2022-10-11T13:15:16.134Z,100130.69
2022-10-11T13:18:23.170Z,100136.13
2022-10-11T13:21:29.083Z,100139.06
2022-10-11T13:24:38.118Z,100136.13
2022-10-11T13:27:41.124Z,100133.31
2022-10-11T13:30:47.581Z,100121.03
2022-10-11T13:33:55.184Z,100115.81
2022-10-11T13:36:58.782Z,100119.03
2022-10-11T13:40:02.464Z,100118.72
2022-10-11T13:43:05.890Z,100127.69
2022-10-11T13:46:20.254Z,100123.56
2022-10-11T13:49:39.170Z,100125.16
2022-10-11T13:53:00.436Z,100120.22
2022-10-11T13:56:08.059Z,100119.84
2022-10-11T13:59:18.746Z,100113.19
2022-10-11T14:02:23.812Z,100123.56
2022-10-11T14:05:37.769Z,100114.53
2022-10-11T14:08:47.265Z,100113.09
2022-10-11T14:11:50.331Z,100116.19
2022-10-11T14:14:53.091Z,100115.97
2022-10-11T14:17:56.039Z,100105.94
2022-10-11T14:20:58.687Z,100122.37
2022-10-11T14:24:01.601Z,100128.37
2022-10-11T14:27:05.893Z,100125.31
2022-10-11T14:30:25.637Z,100127.84
2022-10-11T14:33:29.617Z,100126.72
2022-10-11T14:36:32.718Z,100108.69
2022-10-11T14:39:35.493Z,100126.91
2022-10-11T14:42:38.382Z,100127.69
2022-10-11T14:45:41.068Z,100128.44
2022-10-11T14:48:55.122Z,100130.59
2022-10-11T14:51:59.278Z,100127.91
2022-10-11T14:55:02.242Z,100131.19
2022-10-11T14:58:06.056Z,100129.31
2022-10-11T15:01:14.218Z,100128.00
2022-10-11T15:04:17.827Z,100126.50
2022-10-11T15:07:20.739Z,100126.31
2022-10-11T15:10:27.879Z,100121.03
2022-10-11T15:13:30.846Z,100129.97
2022-10-11T15:16:34.331Z,100128.19
2022-10-11T15:19:37.292Z,100127.53
2022-10-11T15:22:39.893Z,100131.31
2022-10-11T15:25:43.072Z,100137.56
2022-10-11T15:28:46.385Z,100138.31
2022-10-11T15:31:49.556Z,100133.75
2022-10-11T15:34:52.203Z,100132.47
2022-10-11T15:37:58.561Z,100137.81
2022-10-11T15:41:01.281Z,100142.06
2022-10-11T15:44:04.308Z,100136.59
2022-10-11T15:47:06.839Z,100128.41
2022-10-11T15:50:24.003Z,100147.69
2022-10-11T15:53:30.973Z,100150.47
2022-10-11T15:56:34.292Z,100146.66
2022-10-11T15:59:37.260Z,100152.41
2022-10-11T16:02:40.129Z,100147.75
2022-10-11T16:05:43.894Z,100157.09
2022-10-11T16:08:47.985Z,100156.53
2022-10-11T16:11:50.912Z,100164.22
2022-10-11T16:14:53.564Z,100158.72
2022-10-11T16:17:56.435Z,100166.16
2022-10-11T16:20:59.525Z,100166.16
2022-10-11T16:24:02.565Z,100171.41
2022-10-11T16:27:05.172Z,100159.56
2022-10-11T16:30:11.825Z,100179.09
2022-10-11T16:33:16.513Z,100180.72
2022-10-11T16:36:40.774Z,100179.63
2022-10-11T16:39:43.894Z,100173.00
2022-10-11T16:42:48.312Z,100191.19
2022-10-11T16:45:57.486Z,100191.16
2022-10-11T16:49:00.346Z,100191.16
2022-10-11T16:52:04.032Z,100191.44
2022-10-11T16:55:07.367Z,100195.28
2022-10-11T16:58:11.177Z,100193.88
2022-10-11T17:01:14.098Z,100198.84
2022-10-11T17:04:16.834Z,100195.56
2022-10-11T17:07:22.053Z,100204.62
2022-10-11T17:10:39.272Z,100207.69
2022-10-11T17:13:42.415Z,100209.87
2022-10-11T17:16:45.526Z,100209.34
2022-10-11T17:19:48.501Z,100223.94
2022-10-11T17:22:51.703Z,100214.84
2022-10-11T17:25:54.708Z,100215.94
2022-10-11T17:28:58.918Z,100208.81
2022-10-11T17:32:03.455Z,100214.31
2022-10-11T17:35:06.539Z,100213.22
2022-10-11T17:38:09.538Z,100208.81
2022-10-11T17:41:12.362Z,100217.59
2022-10-11T17:44:18.561Z,100215.16
2022-10-11T17:47:21.206Z,100208.81
2022-10-11T17:50:24.065Z,100216.53
2022-10-11T17:53:26.670Z,100194.22
2022-10-11T17:56:35.042Z,100204.94
2022-10-11T17:59:40.137Z,100203.28
2022-10-11T18:02:43.004Z,100210.44
2022-10-11T18:05:45.939Z,100209.38
2022-10-11T18:08:48.688Z,100199.19
2022-10-11T18:11:51.893Z,100196.16
2022-10-11T18:14:54.904Z,100206.09
2022-10-11T18:17:59.586Z,100194.78
2022-10-11T18:21:02.302Z,100199.47
2022-10-11T18:24:10.850Z,100215.44
2022-10-11T18:27:13.579Z,100214.88
2022-10-11T18:30:16.733Z,100222.00
2022-10-11T18:33:19.423Z,100209.87
2022-10-11T18:36:25.659Z,100221.44
2022-10-11T18:39:28.273Z,100223.09
2022-10-11T18:42:31.911Z,100217.03
2022-10-11T18:45:34.442Z,100220.59
2022-10-11T18:48:46.500Z,100213.72
2022-10-11T18:51:49.259Z,100214.50
2022-10-11T18:54:52.285Z,100222.75
2022-10-11T18:57:54.885Z,100216.41
2022-10-11T19:01:09.322Z,100230.37
2022-10-11T19:04:15.959Z,100227.34
2022-10-11T19:07:23.198Z,100218.53
2022-10-11T19:10:26.075Z,100224.00
2022-10-11T19:13:28.932Z,100228.09
2022-10-11T19:16:31.620Z,100238.78
2022-10-11T19:19:35.297Z,100234.94
2022-10-11T19:22:37.915Z,100239.91
2022-10-11T19:25:40.967Z,100241.84
2022-10-11T19:28:44.510Z,100233.34
2022-10-11T19:31:50.256Z,100236.09
2022-10-11T19:34:52.826Z,100238.03
2022-10-11T19:37:55.702Z,100240.50
2022-10-11T19:41:01.195Z,100246.56
2022-10-11T19:44:04.501Z,100251.19
2022-10-11T19:47:07.144Z,100252.59
2022-10-11T19:50:10.819Z,100248.72
2022-10-11T19:53:13.445Z,100241.03
2022-10-11T19:56:18.330Z,100252.34
2022-10-11T19:59:21.287Z,100253.22
2022-10-11T20:02:24.107Z,100254.34
2022-10-11T20:05:27.351Z,100262.34
2022-10-11T20:08:31.437Z,100243.66
2022-10-11T20:11:34.401Z,100251.63
2022-10-11T20:14:36.996Z,100258.28
2022-10-11T20:17:49.076Z,100262.94
2022-10-11T20:20:57.111Z,100263.53
2022-10-11T20:24:02.935Z,100262.44
2022-10-11T20:27:06.380Z,100264.63
2022-10-11T20:30:09.922Z,100260.22
2022-10-11T20:33:12.475Z,100271.75
2022-10-11T20:36:18.766Z,100270.63
2022-10-11T20:39:21.567Z,100276.38
2022-10-11T20:42:28.898Z,100275.47
2022-10-11T20:45:32.266Z,100268.84
2022-10-11T20:48:36.213Z,100274.28
2022-10-11T20:51:41.692Z,100270.91
2022-10-11T20:54:44.643Z,100274.72
2022-10-11T20:57:47.213Z,100273.03
2022-10-11T21:00:50.371Z,100269.75
2022-10-11T21:03:53.043Z,100273.91
2022-10-11T21:06:55.818Z,100270.94
2022-10-11T21:09:58.336Z,100271.78
2022-10-11T21:13:01.305Z,100270.72
2022-10-11T21:16:14.661Z,100273.81
2022-10-11T21:19:17.658Z,100279.03
2022-10-11T21:22:20.476Z,100271.84
2022-10-11T21:25:23.505Z,100270.19
2022-10-11T21:28:26.095Z,100274.84
2022-10-11T21:31:33.755Z,100276.19
2022-10-11T21:34:36.986Z,100273.09
2022-10-11T21:37:39.977Z,100276.12
2022-10-11T21:40:42.558Z,100272.78
2022-10-11T21:43:46.134Z,100275.44
2022-10-11T21:47:05.952Z,100261.91
2022-10-11T21:50:10.222Z,100271.47
2022-10-11T21:53:12.858Z,100271.41
2022-10-11T21:56:16.186Z,100250.94
2022-10-11T21:59:18.806Z,100264.59
2022-10-11T22:02:21.747Z,100271.09
2022-10-11T22:05:24.698Z,100263.50
2022-10-11T22:08:27.193Z,100264.44
2022-10-11T22:11:30.135Z,100260.81
2022-10-11T22:14:32.840Z,100262.06
2022-10-11T22:17:35.670Z,100256.66
2022-10-11T22:20:38.353Z,100251.25
2022-10-11T22:23:43.655Z,100260.25
2022-10-11T22:26:46.352Z,100256.78
2022-10-11T22:29:49.755Z,100255.31
2022-10-11T22:32:52.572Z,100252.38
2022-10-11T22:35:57.670Z,100257.44
2022-10-11T22:39:00.295Z,100257.78
2022-10-11T22:42:03.265Z,100265.00
2022-10-11T22:45:06.378Z,100257.72
2022-10-11T22:48:10.158Z,100257.00
2022-10-11T22:51:12.834Z,100258.72
2022-10-11T22:54:15.806Z,100250.94
2022-10-11T22:57:18.460Z,100248.09
2022-10-11T23:00:21.835Z,100248.28
2022-10-11T23:03:25.106Z,100235.31
2022-10-11T23:06:28.151Z,100247.13
2022-10-11T23:09:31.705Z,100256.16
2022-10-11T23:12:34.908Z,100264.34
2022-10-11T23:15:40.659Z,100248.62
2022-10-11T23:18:43.831Z,100264.28
2022-10-11T23:21:46.864Z,100265.56
2022-10-11T23:24:49.814Z,100265.22
2022-10-11T23:27:52.416Z,100253.53
2022-10-11T23:30:55.403Z,100262.81
2022-10-11T23:33:57.982Z,100271.13
2022-10-11T23:37:02.014Z,100279.09
2022-10-11T23:40:05.085Z,100270.00
2022-10-11T23:43:07.901Z,100275.72
2022-10-11T23:46:10.512Z,100278.91
2022-10-11T23:49:13.590Z,100275.84
2022-10-11T23:52:16.211Z,100288.50
2022-10-11T23:55:19.035Z,100276.78
2022-10-11T23:58:21.616Z,100289.22
